createdAt,value
2023-05-05T00:01:57.931Z,100585.13
2023-05-05T00:06:59.606Z,100579.44
2023-05-05T00:12:01.428Z,100579.59
2023-05-05T00:17:04.274Z,100571.94
2023-05-05T00:22:06.018Z,100570.94
2023-05-05T00:27:07.679Z,100563.84
2023-05-05T00:32:09.303Z,100562.97
2023-05-05T00:37:11.228Z,100552.91
2023-05-05T00:42:13.273Z,100538.88
2023-05-05T00:47:16.768Z,100543.13
2023-05-05T00:52:18.429Z,100533.34
2023-05-05T00:57:20.553Z,100531.50
2023-05-05T01:02:23.206Z,100533.50
2023-05-05T01:07:24.851Z,100532.06
2023-05-05T01:12:29.552Z,100527.69
2023-05-05T01:17:39.793Z,100536.63
2023-05-05T01:22:51.435Z,100530.09
2023-05-05T01:28:16.098Z,100536.56
2023-05-05T01:33:20.648Z,100533.03
2023-05-05T01:38:29.327Z,100543.63
2023-05-05T01:43:32.110Z,100549.56
2023-05-05T01:48:33.927Z,100538.50
2023-05-05T01:53:36.531Z,100531.41
2023-05-05T01:58:38.247Z,100535.38
2023-05-05T02:03:40.265Z,100535.09
2023-05-05T02:08:42.554Z,100524.31
2023-05-05T02:13:44.549Z,100519.78
2023-05-05T02:18:50.557Z,100502.06
2023-05-05T02:23:52.624Z,100503.19
2023-05-05T02:29:03.276Z,100499.19
2023-05-05T02:34:06.169Z,100496.34
2023-05-05T02:39:22.318Z,100498.19
2023-05-05T02:44:24.989Z,100500.16
2023-05-05T02:49:27.701Z,100506.84
2023-05-05T02:54:34.074Z,100516.91
2023-05-05T02:59:47.487Z,100518.56
2023-05-05T03:05:10.409Z,100518.72
2023-05-05T03:10:20.400Z,100524.09
2023-05-05T03:15:29.220Z,100503.41
2023-05-05T03:20:31.238Z,100508.09
2023-05-05T03:25:48.387Z,100515.16
2023-05-05T03:31:03.947Z,100506.09
2023-05-05T03:36:08.158Z,100516.28
2023-05-05T03:41:10.222Z,100510.19
2023-05-05T03:46:12.038Z,100506.22
2023-05-05T03:51:15.072Z,100512.59
2023-05-05T03:56:16.805Z,100523.22
2023-05-05T04:01:18.506Z,100524.78
2023-05-05T04:06:21.270Z,100523.66
2023-05-05T04:11:23.026Z,100517.00
2023-05-05T04:16:26.142Z,100516.03
2023-05-05T04:21:28.275Z,100516.59
2023-05-05T04:26:30.747Z,100522.16
2023-05-05T04:31:32.728Z,100523.59
2023-05-05T04:36:34.891Z,100524.19
2023-05-05T04:41:36.925Z,100532.97
2023-05-05T04:46:38.937Z,100535.69
2023-05-05T04:51:43.881Z,100535.84
2023-05-05T04:56:45.654Z,100543.38
2023-05-05T05:01:47.341Z,100537.75
2023-05-05T05:06:48.972Z,100532.34
2023-05-05T05:11:50.656Z,100535.75
2023-05-05T05:16:52.579Z,100537.16
2023-05-05T05:21:56.629Z,100538.00
2023-05-05T05:26:58.755Z,100532.00
2023-05-05T05:32:00.876Z,100535.03
2023-05-05T05:37:02.819Z,100539.78
2023-05-05T05:42:04.755Z,100533.38
2023-05-05T05:47:06.942Z,100531.75
2023-05-05T05:52:08.722Z,100534.91
2023-05-05T05:57:10.524Z,100532.53
2023-05-05T06:02:13.225Z,100531.22
2023-05-05T06:07:15.094Z,100540.03
2023-05-05T06:12:17.047Z,100542.38
2023-05-05T06:17:18.812Z,100535.81
2023-05-05T06:22:20.929Z,100543.13
2023-05-05T06:27:23.572Z,100534.91
2023-05-05T06:32:25.344Z,100531.06
2023-05-05T06:37:27.098Z,100525.06
2023-05-05T06:42:30.837Z,100526.13
2023-05-05T06:47:33.990Z,100520.22
2023-05-05T06:52:35.758Z,100516.81
2023-05-05T06:57:37.359Z,100509.69
2023-05-05T07:02:39.837Z,100516.09
2023-05-05T07:07:53.672Z,100511.13
2023-05-05T07:12:55.608Z,100504.84
2023-05-05T07:17:57.777Z,100505.00
2023-05-05T07:22:59.700Z,100503.34
2023-05-05T07:28:01.487Z,100508.22
2023-05-05T07:33:03.680Z,100495.47
2023-05-05T07:38:05.435Z,100504.94
2023-05-05T07:43:07.179Z,100505.78
2023-05-05T07:48:08.908Z,100501.56
2023-05-05T07:53:14.975Z,100502.09
2023-05-05T07:58:17.082Z,100497.88
2023-05-05T08:03:21.700Z,100499.47
2023-05-05T08:08:27.366Z,100494.56
2023-05-05T08:13:30.255Z,100492.19
2023-05-05T08:18:31.905Z,100494.31
2023-05-05T08:23:34.527Z,100493.47
2023-05-05T08:28:36.835Z,100494.72
2023-05-05T08:33:38.486Z,100486.63
2023-05-05T08:38:40.182Z,100480.50
2023-05-05T08:43:44.534Z,100473.34
2023-05-05T08:48:46.309Z,100472.31
2023-05-05T08:53:54.021Z,100462.25
2023-05-05T08:58:56.555Z,100464.22
2023-05-05T09:03:59.395Z,100461.13
2023-05-05T09:09:01.442Z,100451.09
2023-05-05T09:14:03.139Z,100447.75
2023-05-05T09:19:05.143Z,100451.31
2023-05-05T09:24:11.346Z,100459.00
2023-05-05T09:29:23.136Z,100460.72
2023-05-05T09:34:24.780Z,100464.50
2023-05-05T09:39:26.509Z,100457.31
2023-05-05T09:44:35.893Z,100458.34
2023-05-05T09:49:37.968Z,100454.72
2023-05-05T09:54:39.619Z,100443.56
2023-05-05T09:59:54.722Z,100442.75
2023-05-05T10:05:04.651Z,100443.59
2023-05-05T10:10:26.055Z,100441.25
2023-05-05T10:15:29.120Z,100427.91
2023-05-05T10:20:31.387Z,100428.94
2023-05-05T10:25:39.603Z,100413.06
2023-05-05T10:30:43.490Z,100407.47
2023-05-05T10:35:46.806Z,100409.88
2023-05-05T10:40:48.855Z,100416.78
2023-05-05T10:45:50.843Z,100404.22
2023-05-05T10:50:58.482Z,100407.41
2023-05-05T10:56:11.211Z,100391.66
2023-05-05T11:01:28.444Z,100383.97
2023-05-05T11:06:31.240Z,100389.81
2023-05-05T11:12:07.137Z,100386.66
2023-05-05T11:17:44.030Z,100379.84
2023-05-05T11:23:03.897Z,100369.06
2023-05-05T11:28:56.712Z,100368.47
2023-05-05T11:34:29.456Z,100358.38
2023-05-05T11:39:56.065Z,100357.13
2023-05-05T11:44:57.875Z,100352.34
2023-05-05T11:50:00.892Z,100338.09
2023-05-05T11:55:03.731Z,100337.78
2023-05-05T12:00:10.392Z,100340.47
2023-05-05T12:05:19.319Z,100344.44
2023-05-05T12:10:23.994Z,100329.00
2023-05-05T12:15:30.377Z,100333.09
2023-05-05T12:20:33.056Z,100337.56
2023-05-05T12:25:36.895Z,100336.66
2023-05-05T12:30:38.636Z,100331.56
2023-05-05T12:35:41.460Z,100338.78
2023-05-05T12:40:51.726Z,100325.03
2023-05-05T12:46:12.906Z,100320.91
2023-05-05T12:51:16.820Z,100321.53
2023-05-05T12:56:36.510Z,100317.00
2023-05-05T13:01:52.036Z,100304.78
2023-05-05T13:07:14.139Z,100311.03
2023-05-05T13:12:17.790Z,100309.00
2023-05-05T13:17:19.420Z,100301.03
2023-05-05T13:22:21.246Z,100295.34
2023-05-05T13:27:23.691Z,100300.56
2023-05-05T13:32:25.571Z,100283.94
2023-05-05T13:37:27.736Z,100280.25
2023-05-05T13:42:29.459Z,100263.88
2023-05-05T13:47:31.264Z,100259.84
2023-05-05T13:52:33.565Z,100244.63
2023-05-05T13:57:35.421Z,100259.31
2023-05-05T14:02:37.110Z,100247.69
2023-05-05T14:07:38.787Z,100248.44
2023-05-05T14:12:40.496Z,100237.28
2023-05-05T14:17:42.602Z,100237.81
2023-05-05T14:22:44.380Z,100240.19
2023-05-05T14:27:45.994Z,100230.22
2023-05-05T14:32:47.742Z,100230.13
2023-05-05T14:37:49.491Z,100220.66
2023-05-05T14:42:51.157Z,100216.38
2023-05-05T14:47:52.865Z,100215.91
2023-05-05T14:52:54.538Z,100213.34
2023-05-05T14:57:56.159Z,100212.00
2023-05-05T15:02:58.016Z,100211.44
2023-05-05T15:07:59.768Z,100202.19
2023-05-05T15:13:01.596Z,100192.97
2023-05-05T15:18:03.864Z,100192.72
2023-05-05T15:23:05.631Z,100202.81
2023-05-05T15:28:07.299Z,100194.19
2023-05-05T15:33:09.034Z,100187.28
2023-05-05T15:38:10.910Z,100186.16
2023-05-05T15:43:12.622Z,100184.47
2023-05-05T15:48:14.335Z,100187.13
2023-05-05T15:53:16.540Z,100178.59
2023-05-05T15:58:18.257Z,100173.94
2023-05-05T16:03:20.172Z,100178.59
2023-05-05T16:08:22.125Z,100171.97
2023-05-05T16:13:23.769Z,100170.50
2023-05-05T16:18:25.653Z,100164.78
2023-05-05T16:23:27.309Z,100164.31
2023-05-05T16:28:29.021Z,100165.22
2023-05-05T16:33:31.015Z,100167.69
2023-05-05T16:38:32.749Z,100166.91
2023-05-05T16:43:35.215Z,100153.59
2023-05-05T16:48:36.901Z,100157.19
2023-05-05T16:53:39.996Z,100160.28
2023-05-05T16:58:41.728Z,100162.25
2023-05-05T17:03:43.445Z,100153.69
2023-05-05T17:08:45.115Z,100154.16
2023-05-05T17:13:46.796Z,100160.69
2023-05-05T17:18:48.969Z,100151.84
2023-05-05T17:23:50.754Z,100156.28
2023-05-05T17:28:52.469Z,100142.84
2023-05-05T17:33:54.120Z,100142.03
2023-05-05T17:38:55.996Z,100141.88
2023-05-05T17:43:59.345Z,100136.44
2023-05-05T17:49:01.143Z,100137.78
2023-05-05T17:54:02.855Z,100132.78
2023-05-05T17:59:04.560Z,100137.91
2023-05-05T18:04:06.285Z,100133.94
2023-05-05T18:09:09.810Z,100146.03
2023-05-05T18:14:12.764Z,100147.34
2023-05-05T18:19:14.744Z,100145.34
2023-05-05T18:24:20.355Z,100153.63
2023-05-05T18:29:22.393Z,100166.97
2023-05-05T18:34:24.010Z,100162.78
2023-05-05T18:39:25.680Z,100167.25
2023-05-05T18:44:27.378Z,100168.28
2023-05-05T18:49:31.142Z,100170.19
2023-05-05T18:54:33.498Z,100174.63
2023-05-05T18:59:35.911Z,100174.00
2023-05-05T19:04:38.081Z,100185.38
2023-05-05T19:09:40.063Z,100189.75
2023-05-05T19:14:41.780Z,100187.19
2023-05-05T19:19:43.698Z,100183.63
2023-05-05T19:24:45.486Z,100188.44
2023-05-05T19:29:52.146Z,100188.22
2023-05-05T19:34:54.490Z,100190.31
2023-05-05T19:39:56.563Z,100195.56
2023-05-05T19:44:58.261Z,100198.03
2023-05-05T19:49:59.893Z,100189.81
2023-05-05T19:55:01.772Z,100192.53
2023-05-05T20:00:03.692Z,100187.06
2023-05-05T20:05:06.421Z,100188.06
2023-05-05T20:10:09.312Z,100174.19
2023-05-05T20:15:11.526Z,100173.13
2023-05-05T20:20:19.133Z,100180.03
2023-05-05T20:25:20.822Z,100170.75
2023-05-05T20:30:22.518Z,100168.78
2023-05-05T20:35:24.180Z,100162.66
2023-05-05T20:40:26.104Z,100165.56
2023-05-05T20:45:27.871Z,100160.50
2023-05-05T20:50:29.709Z,100165.34
2023-05-05T20:55:31.337Z,100162.56
2023-05-05T21:00:33.594Z,100170.72
2023-05-05T21:05:35.994Z,100169.00
2023-05-05T21:10:38.445Z,100158.84
2023-05-05T21:15:40.278Z,100157.13
2023-05-05T21:20:42.094Z,100150.78
2023-05-05T21:25:43.740Z,100145.09
2023-05-05T21:30:54.869Z,100131.00
2023-05-05T21:36:06.633Z,100130.97
2023-05-05T21:41:08.242Z,100133.66
2023-05-05T21:46:10.010Z,100126.47
2023-05-05T21:51:11.669Z,100125.69
2023-05-05T21:56:13.445Z,100129.22
2023-05-05T22:01:15.088Z,100126.84
2023-05-05T22:06:17.380Z,100115.22
2023-05-05T22:11:19.513Z,100124.84
2023-05-05T22:16:21.143Z,100135.28
2023-05-05T22:21:22.922Z,100134.63
2023-05-05T22:26:24.753Z,100134.38
2023-05-05T22:31:29.165Z,100139.56
2023-05-05T22:36:31.529Z,100147.94
2023-05-05T22:41:33.189Z,100171.13
2023-05-05T22:46:34.851Z,100178.44
2023-05-05T22:51:36.602Z,100192.84
2023-05-05T22:56:38.256Z,100199.63
2023-05-05T23:01:40.022Z,100208.31
2023-05-05T23:06:41.848Z,100219.16
2023-05-05T23:11:43.538Z,100224.13
2023-05-05T23:16:46.053Z,100210.13
2023-05-05T23:21:53.345Z,100210.44
2023-05-05T23:26:58.206Z,100206.97
2023-05-05T23:31:59.846Z,100205.91
2023-05-05T23:37:02.513Z,100204.06
2023-05-05T23:42:05.037Z,100210.84
2023-05-05T23:47:06.661Z,100203.75
2023-05-05T23:52:08.412Z,100199.53
2023-05-05T23:57:10.086Z,100201.06
